Terminal Aerodrome Forecast
Issued by NWS

Home | Current Version | Previous Version | Text Only | Print | Product List | Glossary On
Versions: 1 2 3 4 5 6 7 8 9 10 11 12 13 14 15 16 17 18 19 20 21 22 23 24
000
FTUS46 KHNX 260521
TAFBFL
TAF
KBFL 260521Z 2606/2706 VRB03KT 5SM BR BKN200
     FM262000 VRB04KT 5SM HZ SCT080 BKN200
     FM270200 VRB04KT 5SM -SHRA OVC080=

USA.gov is the U.S. government's official web portal to all federal, state and local government web resources and services.